KHUM

Houma-Terrebonne Airport

Houma, Louisiana, USA
METAR KHUM 140435Z AUTO 34011G16KT 7SM OVC008 05/03 A3031 RMK AO2 P0001 T00460034
Observed Flight Rules
Nov-14 @ 04:35 UTC (14 minutes ago) Instrument Flight Rules
Wind Visibility Clouds
340° at 11 knots
 Gusting to 16 knots
7 miles
  • Overcast at 800' AGL
Temperatures Readings Precipitation
Current 5°C / 41°F
Dewpoint 3°C / 37°F
Humidity 87%
Altimeter 30.31" Hg
Pressure 1026 hPa
Elevation 3
Current Rain 0.01
METAR KHUM 140435Z AUTO 34011G16KT 7SM OVC008 05/03 A3031 RMK AO2 P0001 T00460034
Observed Flight Rules
Nov-14 @ 04:35 UTC
(14 minutes ago)
IFR
Wind Visibility
340° at 11 knots
 Gusting to 16 knots
7 miles
Clouds
  • Overcast at 800' AGL
Temperature Dewpoint
5°C / 41°F 3°C / 37°F
Humidity Altimeter Pressure
87% 30.31" Hg 1026 hPa
Current Rain
0.01